sensor_id;sensor_type;location;lat;lon;timestamp;temperature;humidity
69595;DHT22;56800;52.142;5.364;2024-03-08T00:01:46;4.30;77.90
69595;DHT22;56800;52.142;5.364;2024-03-08T00:04:13;4.30;77.80
69595;DHT22;56800;52.142;5.364;2024-03-08T00:06:42;4.30;77.80
69595;DHT22;56800;52.142;5.364;2024-03-08T00:09:10;4.30;77.70
69595;DHT22;56800;52.142;5.364;2024-03-08T00:11:37;4.30;77.80
69595;DHT22;56800;52.142;5.364;2024-03-08T00:14:04;4.30;77.80
69595;DHT22;56800;52.142;5.364;2024-03-08T00:16:33;4.20;77.70
69595;DHT22;56800;52.142;5.364;2024-03-08T00:19:01;4.20;77.80
69595;DHT22;56800;52.142;5.364;2024-03-08T00:21:28;4.20;77.70
69595;DHT22;56800;52.142;5.364;2024-03-08T00:23:55;4.20;77.80
69595;DHT22;56800;52.142;5.364;2024-03-08T00:26:22;4.20;77.80
69595;DHT22;56800;52.142;5.364;2024-03-08T00:28:49;4.10;77.80
69595;DHT22;56800;52.142;5.364;2024-03-08T00:31:16;4.10;77.80
69595;DHT22;56800;52.142;5.364;2024-03-08T00:33:43;4.10;77.80
69595;DHT22;56800;52.142;5.364;2024-03-08T00:36:10;4.10;77.80
69595;DHT22;56800;52.142;5.364;2024-03-08T00:38:37;4.10;77.70
69595;DHT22;56800;52.142;5.364;2024-03-08T00:41:04;4.00;77.80
69595;DHT22;56800;52.142;5.364;2024-03-08T00:43:31;4.00;77.70
69595;DHT22;56800;52.142;5.364;2024-03-08T00:45:58;4.00;78.30
69595;DHT22;56800;52.142;5.364;2024-03-08T00:48:25;3.90;77.60
69595;DHT22;56800;52.142;5.364;2024-03-08T00:50:52;3.90;77.80
69595;DHT22;56800;52.142;5.364;2024-03-08T00:53:19;3.90;77.80
69595;DHT22;56800;52.142;5.364;2024-03-08T00:55:46;3.90;78.00
69595;DHT22;56800;52.142;5.364;2024-03-08T00:58:13;3.90;78.00
69595;DHT22;56800;52.142;5.364;2024-03-08T01:00:40;3.80;77.90
69595;DHT22;56800;52.142;5.364;2024-03-08T01:03:07;3.80;78.00
69595;DHT22;56800;52.142;5.364;2024-03-08T01:05:34;3.80;77.90
69595;DHT22;56800;52.142;5.364;2024-03-08T01:08:01;3.80;78.00
69595;DHT22;56800;52.142;5.364;2024-03-08T01:10:30;3.80;78.10
69595;DHT22;56800;52.142;5.364;2024-03-08T01:12:56;3.70;78.00
69595;DHT22;56800;52.142;5.364;2024-03-08T01:15:26;3.70;78.00
69595;DHT22;56800;52.142;5.364;2024-03-08T01:17:53;3.70;78.10
69595;DHT22;56800;52.142;5.364;2024-03-08T01:20:20;3.70;78.10
69595;DHT22;56800;52.142;5.364;2024-03-08T01:22:47;3.70;78.10
69595;DHT22;56800;52.142;5.364;2024-03-08T01:25:14;3.70;78.10
69595;DHT22;56800;52.142;5.364;2024-03-08T01:27:41;3.60;78.10
69595;DHT22;56800;52.142;5.364;2024-03-08T01:30:08;3.70;78.10
69595;DHT22;56800;52.142;5.364;2024-03-08T01:32:37;3.60;78.00
69595;DHT22;56800;52.142;5.364;2024-03-08T01:35:05;3.60;78.00
69595;DHT22;56800;52.142;5.364;2024-03-08T01:37:32;3.60;78.00
69595;DHT22;56800;52.142;5.364;2024-03-08T01:39:59;3.60;78.00
69595;DHT22;56800;52.142;5.364;2024-03-08T01:42:26;3.60;78.00
69595;DHT22;56800;52.142;5.364;2024-03-08T01:44:54;3.50;78.00
69595;DHT22;56800;52.142;5.364;2024-03-08T01:47:22;3.50;78.00
69595;DHT22;56800;52.142;5.364;2024-03-08T01:49:50;3.50;78.10
69595;DHT22;56800;52.142;5.364;2024-03-08T01:52:17;3.40;78.10
69595;DHT22;56800;52.142;5.364;2024-03-08T01:54:49;3.40;78.10
69595;DHT22;56800;52.142;5.364;2024-03-08T01:57:16;3.40;78.10
69595;DHT22;56800;52.142;5.364;2024-03-08T01:59:43;3.30;78.10
69595;DHT22;56800;52.142;5.364;2024-03-08T02:02:11;3.30;78.20
69595;DHT22;56800;52.142;5.364;2024-03-08T02:04:40;3.30;78.30
69595;DHT22;56800;52.142;5.364;2024-03-08T02:07:07;3.20;78.20
69595;DHT22;56800;52.142;5.364;2024-03-08T02:09:37;3.30;78.30
69595;DHT22;56800;52.142;5.364;2024-03-08T02:12:04;3.30;78.30
69595;DHT22;56800;52.142;5.364;2024-03-08T02:14:31;3.20;78.20
69595;DHT22;56800;52.142;5.364;2024-03-08T02:17:01;3.20;78.30
69595;DHT22;56800;52.142;5.364;2024-03-08T02:19:28;3.20;78.30
69595;DHT22;56800;52.142;5.364;2024-03-08T02:21:55;3.20;78.20
69595;DHT22;56800;52.142;5.364;2024-03-08T02:24:23;3.20;78.20
69595;DHT22;56800;52.142;5.364;2024-03-08T02:26:50;3.10;78.20
69595;DHT22;56800;52.142;5.364;2024-03-08T02:29:18;3.10;78.20
69595;DHT22;56800;52.142;5.364;2024-03-08T02:31:45;3.10;78.20
69595;DHT22;56800;52.142;5.364;2024-03-08T02:34:11;3.10;78.20
69595;DHT22;56800;52.142;5.364;2024-03-08T02:36:38;3.00;78.20
69595;DHT22;56800;52.142;5.364;2024-03-08T02:39:05;3.00;78.20
69595;DHT22;56800;52.142;5.364;2024-03-08T02:41:32;3.00;78.30
69595;DHT22;56800;52.142;5.364;2024-03-08T02:43:59;2.90;78.20
69595;DHT22;56800;52.142;5.364;2024-03-08T02:46:26;2.90;78.20
69595;DHT22;56800;52.142;5.364;2024-03-08T02:48:54;2.90;78.20
69595;DHT22;56800;52.142;5.364;2024-03-08T02:51:21;2.90;78.30
69595;DHT22;56800;52.142;5.364;2024-03-08T02:53:48;2.80;78.20
69595;DHT22;56800;52.142;5.364;2024-03-08T02:56:19;2.90;78.30
69595;DHT22;56800;52.142;5.364;2024-03-08T02:58:48;2.80;78.30
69595;DHT22;56800;52.142;5.364;2024-03-08T03:01:15;2.80;78.40
69595;DHT22;56800;52.142;5.364;2024-03-08T03:03:42;2.80;78.40
69595;DHT22;56800;52.142;5.364;2024-03-08T03:06:09;2.70;78.30
69595;DHT22;56800;52.142;5.364;2024-03-08T03:08:36;2.70;78.40
69595;DHT22;56800;52.142;5.364;2024-03-08T03:11:03;2.70;78.50
69595;DHT22;56800;52.142;5.364;2024-03-08T03:13:30;2.70;78.40
69595;DHT22;56800;52.142;5.364;2024-03-08T03:15:57;2.70;78.50
69595;DHT22;56800;52.142;5.364;2024-03-08T03:18:24;2.60;78.50
69595;DHT22;56800;52.142;5.364;2024-03-08T03:20:52;2.70;78.50
69595;DHT22;56800;52.142;5.364;2024-03-08T03:23:19;2.60;78.40
69595;DHT22;56800;52.142;5.364;2024-03-08T03:25:47;2.60;78.40
69595;DHT22;56800;52.142;5.364;2024-03-08T03:28:14;2.60;78.40
69595;DHT22;56800;52.142;5.364;2024-03-08T03:30:47;2.60;78.50
69595;DHT22;56800;52.142;5.364;2024-03-08T03:33:14;2.60;78.40
69595;DHT22;56800;52.142;5.364;2024-03-08T03:35:42;2.50;78.40
69595;DHT22;56800;52.142;5.364;2024-03-08T03:38:11;2.50;78.50
69595;DHT22;56800;52.142;5.364;2024-03-08T03:40:39;2.50;78.50
69595;DHT22;56800;52.142;5.364;2024-03-08T03:43:07;2.40;78.40
69595;DHT22;56800;52.142;5.364;2024-03-08T03:45:35;2.40;78.40
69595;DHT22;56800;52.142;5.364;2024-03-08T03:48:05;2.40;78.50
69595;DHT22;56800;52.142;5.364;2024-03-08T03:50:34;2.30;78.50
69595;DHT22;56800;52.142;5.364;2024-03-08T03:53:03;2.30;78.60
69595;DHT22;56800;52.142;5.364;2024-03-08T03:55:30;2.30;78.60
69595;DHT22;56800;52.142;5.364;2024-03-08T03:57:57;2.30;78.70
69595;DHT22;56800;52.142;5.364;2024-03-08T04:00:26;2.30;78.70
69595;DHT22;56800;52.142;5.364;2024-03-08T04:02:54;2.30;78.70
69595;DHT22;56800;52.142;5.364;2024-03-08T04:05:22;2.20;78.70
69595;DHT22;56800;52.142;5.364;2024-03-08T04:07:48;2.20;78.70
69595;DHT22;56800;52.142;5.364;2024-03-08T04:10:15;2.20;78.70
69595;DHT22;56800;52.142;5.364;2024-03-08T04:12:42;2.20;78.70
69595;DHT22;56800;52.142;5.364;2024-03-08T04:15:09;2.20;78.80
69595;DHT22;56800;52.142;5.364;2024-03-08T04:17:38;2.20;78.80
69595;DHT22;56800;52.142;5.364;2024-03-08T04:20:05;2.20;78.80
69595;DHT22;56800;52.142;5.364;2024-03-08T04:22:37;2.20;78.80
69595;DHT22;56800;52.142;5.364;2024-03-08T04:25:04;2.20;78.80
69595;DHT22;56800;52.142;5.364;2024-03-08T04:27:33;2.10;78.80
69595;DHT22;56800;52.142;5.364;2024-03-08T04:30:01;2.10;79.60
69595;DHT22;56800;52.142;5.364;2024-03-08T04:32:28;2.10;78.90
69595;DHT22;56800;52.142;5.364;2024-03-08T04:35:00;2.10;79.00
69595;DHT22;56800;52.142;5.364;2024-03-08T04:37:30;2.10;79.00
69595;DHT22;56800;52.142;5.364;2024-03-08T04:39:58;2.10;78.90
69595;DHT22;56800;52.142;5.364;2024-03-08T04:42:26;2.20;79.00
69595;DHT22;56800;52.142;5.364;2024-03-08T04:44:53;2.10;78.90
69595;DHT22;56800;52.142;5.364;2024-03-08T04:47:21;2.10;78.80
69595;DHT22;56800;52.142;5.364;2024-03-08T04:49:47;2.10;78.80
69595;DHT22;56800;52.142;5.364;2024-03-08T04:52:14;2.10;78.80
69595;DHT22;56800;52.142;5.364;2024-03-08T04:54:42;2.10;78.80
69595;DHT22;56800;52.142;5.364;2024-03-08T04:57:09;2.10;78.80
69595;DHT22;56800;52.142;5.364;2024-03-08T04:59:36;2.10;78.80
69595;DHT22;56800;52.142;5.364;2024-03-08T05:02:03;2.10;78.70
69595;DHT22;56800;52.142;5.364;2024-03-08T05:04:30;2.10;78.80
69595;DHT22;56800;52.142;5.364;2024-03-08T05:06:57;2.10;78.70
69595;DHT22;56800;52.142;5.364;2024-03-08T05:09:24;2.10;78.80
69595;DHT22;56800;52.142;5.364;2024-03-08T05:11:50;2.10;78.80
69595;DHT22;56800;52.142;5.364;2024-03-08T05:14:17;2.00;78.70
69595;DHT22;56800;52.142;5.364;2024-03-08T05:16:47;2.10;78.80
69595;DHT22;56800;52.142;5.364;2024-03-08T05:19:20;2.10;78.80
69595;DHT22;56800;52.142;5.364;2024-03-08T05:21:48;2.00;78.70
69595;DHT22;56800;52.142;5.364;2024-03-08T05:24:16;2.00;78.70
69595;DHT22;56800;52.142;5.364;2024-03-08T05:26:45;2.00;78.80
69595;DHT22;56800;52.142;5.364;2024-03-08T05:29:12;2.00;78.70
69595;DHT22;56800;52.142;5.364;2024-03-08T05:31:48;2.00;78.80
69595;DHT22;56800;52.142;5.364;2024-03-08T05:34:16;2.00;78.90
69595;DHT22;56800;52.142;5.364;2024-03-08T05:36:43;2.00;78.90
69595;DHT22;56800;52.142;5.364;2024-03-08T05:39:15;2.00;78.80
69595;DHT22;56800;52.142;5.364;2024-03-08T05:41:43;2.00;78.80
69595;DHT22;56800;52.142;5.364;2024-03-08T05:44:11;1.90;78.80
69595;DHT22;56800;52.142;5.364;2024-03-08T05:46:38;2.00;78.80
69595;DHT22;56800;52.142;5.364;2024-03-08T05:49:06;2.00;78.80
69595;DHT22;56800;52.142;5.364;2024-03-08T05:51:34;2.00;78.80
69595;DHT22;56800;52.142;5.364;2024-03-08T05:54:04;2.00;78.80
69595;DHT22;56800;52.142;5.364;2024-03-08T05:56:37;2.00;78.80
69595;DHT22;56800;52.142;5.364;2024-03-08T05:59:04;2.00;78.70
69595;DHT22;56800;52.142;5.364;2024-03-08T06:01:31;1.90;78.70
69595;DHT22;56800;52.142;5.364;2024-03-08T06:03:58;1.90;78.70
69595;DHT22;56800;52.142;5.364;2024-03-08T06:06:26;1.90;78.80
69595;DHT22;56800;52.142;5.364;2024-03-08T06:08:53;1.90;78.70
69595;DHT22;56800;52.142;5.364;2024-03-08T06:11:20;1.90;78.70
69595;DHT22;56800;52.142;5.364;2024-03-08T06:13:48;1.90;78.70
69595;DHT22;56800;52.142;5.364;2024-03-08T06:16:15;1.90;78.70
69595;DHT22;56800;52.142;5.364;2024-03-08T06:18:42;1.90;78.70
69595;DHT22;56800;52.142;5.364;2024-03-08T06:21:09;1.90;78.70
69595;DHT22;56800;52.142;5.364;2024-03-08T06:23:38;1.90;78.60
69595;DHT22;56800;52.142;5.364;2024-03-08T06:26:05;1.90;78.60
69595;DHT22;56800;52.142;5.364;2024-03-08T06:28:33;1.90;78.70
69595;DHT22;56800;52.142;5.364;2024-03-08T06:31:01;1.90;78.70
69595;DHT22;56800;52.142;5.364;2024-03-08T06:33:29;1.90;78.70
69595;DHT22;56800;52.142;5.364;2024-03-08T06:35:57;1.90;78.70
69595;DHT22;56800;52.142;5.364;2024-03-08T06:38:25;1.90;78.70
69595;DHT22;56800;52.142;5.364;2024-03-08T06:40:52;2.00;78.80
69595;DHT22;56800;52.142;5.364;2024-03-08T06:43:19;2.00;78.80
69595;DHT22;56800;52.142;5.364;2024-03-08T06:45:46;1.90;78.70
69595;DHT22;56800;52.142;5.364;2024-03-08T06:48:19;2.00;78.80
69595;DHT22;56800;52.142;5.364;2024-03-08T06:50:47;2.00;78.90
69595;DHT22;56800;52.142;5.364;2024-03-08T06:53:14;2.00;78.80
69595;DHT22;56800;52.142;5.364;2024-03-08T06:55:44;2.10;78.80
69595;DHT22;56800;52.142;5.364;2024-03-08T06:58:11;2.10;78.70
69595;DHT22;56800;52.142;5.364;2024-03-08T07:00:38;2.10;78.70
69595;DHT22;56800;52.142;5.364;2024-03-08T07:03:08;2.20;78.60
69595;DHT22;56800;52.142;5.364;2024-03-08T07:05:39;2.20;78.60
69595;DHT22;56800;52.142;5.364;2024-03-08T07:08:07;2.30;78.80
69595;DHT22;56800;52.142;5.364;2024-03-08T07:10:35;2.30;78.70
69595;DHT22;56800;52.142;5.364;2024-03-08T07:13:03;2.40;78.60
69595;DHT22;56800;52.142;5.364;2024-03-08T07:15:30;2.40;78.60
69595;DHT22;56800;52.142;5.364;2024-03-08T07:17:57;2.50;78.60
69595;DHT22;56800;52.142;5.364;2024-03-08T07:20:24;2.70;78.70
69595;DHT22;56800;52.142;5.364;2024-03-08T07:22:51;2.80;78.60
69595;DHT22;56800;52.142;5.364;2024-03-08T07:25:18;2.90;78.70
69595;DHT22;56800;52.142;5.364;2024-03-08T07:27:50;3.00;78.40
69595;DHT22;56800;52.142;5.364;2024-03-08T07:30:22;3.10;78.20
69595;DHT22;56800;52.142;5.364;2024-03-08T07:33:07;3.10;78.00
69595;DHT22;56800;52.142;5.364;2024-03-08T07:35:34;3.40;78.60
69595;DHT22;56800;52.142;5.364;2024-03-08T07:38:08;3.50;77.80
69595;DHT22;56800;52.142;5.364;2024-03-08T07:40:37;3.60;77.30
69595;DHT22;56800;52.142;5.364;2024-03-08T07:43:11;3.70;76.70
69595;DHT22;56800;52.142;5.364;2024-03-08T07:45:38;3.70;76.10
69595;DHT22;56800;52.142;5.364;2024-03-08T07:48:06;3.60;76.10
69595;DHT22;56800;52.142;5.364;2024-03-08T07:50:40;3.60;76.10
69595;DHT22;56800;52.142;5.364;2024-03-08T07:53:08;3.60;76.10
69595;DHT22;56800;52.142;5.364;2024-03-08T07:55:35;3.60;76.10
69595;DHT22;56800;52.142;5.364;2024-03-08T07:58:03;3.60;76.10
69595;DHT22;56800;52.142;5.364;2024-03-08T08:00:30;3.60;76.10
69595;DHT22;56800;52.142;5.364;2024-03-08T08:02:58;3.70;76.50
69595;DHT22;56800;52.142;5.364;2024-03-08T08:05:25;3.90;77.00
69595;DHT22;56800;52.142;5.364;2024-03-08T08:07:53;4.20;77.00
69595;DHT22;56800;52.142;5.364;2024-03-08T08:10:20;4.40;76.20
69595;DHT22;56800;52.142;5.364;2024-03-08T08:12:52;4.40;75.50
69595;DHT22;56800;52.142;5.364;2024-03-08T08:15:20;4.50;75.30
69595;DHT22;56800;52.142;5.364;2024-03-08T08:17:47;4.60;75.00
69595;DHT22;56800;52.142;5.364;2024-03-08T08:20:18;4.70;74.90
69595;DHT22;56800;52.142;5.364;2024-03-08T08:22:45;5.00;75.70
69595;DHT22;56800;52.142;5.364;2024-03-08T08:25:14;5.50;75.90
69595;DHT22;56800;52.142;5.364;2024-03-08T08:27:42;6.10;75.00
69595;DHT22;56800;52.142;5.364;2024-03-08T08:30:12;6.60;73.10
69595;DHT22;56800;52.142;5.364;2024-03-08T08:32:39;6.70;71.60
69595;DHT22;56800;52.142;5.364;2024-03-08T08:35:08;6.70;71.00
69595;DHT22;56800;52.142;5.364;2024-03-08T08:37:38;6.60;71.00
69595;DHT22;56800;52.142;5.364;2024-03-08T08:40:06;6.70;71.50
69595;DHT22;56800;52.142;5.364;2024-03-08T08:42:37;7.00;70.90
69595;DHT22;56800;52.142;5.364;2024-03-08T08:45:06;7.30;70.60
69595;DHT22;56800;52.142;5.364;2024-03-08T08:47:46;7.40;69.50
69595;DHT22;56800;52.142;5.364;2024-03-08T08:50:14;7.40;69.60
69595;DHT22;56800;52.142;5.364;2024-03-08T08:52:42;7.70;69.10
69595;DHT22;56800;52.142;5.364;2024-03-08T08:55:12;8.10;68.70
69595;DHT22;56800;52.142;5.364;2024-03-08T08:57:42;8.70;68.20
69595;DHT22;56800;52.142;5.364;2024-03-08T09:00:09;9.40;67.40
69595;DHT22;56800;52.142;5.364;2024-03-08T09:02:42;9.90;65.80
69595;DHT22;56800;52.142;5.364;2024-03-08T09:05:09;10.10;63.60
69595;DHT22;56800;52.142;5.364;2024-03-08T09:07:36;10.40;63.50
69595;DHT22;56800;52.142;5.364;2024-03-08T09:10:04;10.70;63.30
69595;DHT22;56800;52.142;5.364;2024-03-08T09:12:34;11.30;63.20
69595;DHT22;56800;52.142;5.364;2024-03-08T09:15:01;12.20;62.60
69595;DHT22;56800;52.142;5.364;2024-03-08T09:17:28;13.10;61.00
69595;DHT22;56800;52.142;5.364;2024-03-08T09:19:55;13.90;58.90
69595;DHT22;56800;52.142;5.364;2024-03-08T09:22:24;14.50;57.40
69595;DHT22;56800;52.142;5.364;2024-03-08T09:24:52;15.10;55.80
69595;DHT22;56800;52.142;5.364;2024-03-08T09:27:18;15.50;52.90
69595;DHT22;56800;52.142;5.364;2024-03-08T09:29:46;16.10;53.40
69595;DHT22;56800;52.142;5.364;2024-03-08T09:32:13;16.70;50.80
69595;DHT22;56800;52.142;5.364;2024-03-08T09:34:40;17.10;50.20
69595;DHT22;56800;52.142;5.364;2024-03-08T09:37:07;17.50;48.70
69595;DHT22;56800;52.142;5.364;2024-03-08T09:39:35;18.00;48.60
69595;DHT22;56800;52.142;5.364;2024-03-08T09:42:02;18.40;47.00
69595;DHT22;56800;52.142;5.364;2024-03-08T09:44:29;18.70;46.00
69595;DHT22;56800;52.142;5.364;2024-03-08T09:46:56;19.20;45.70
69595;DHT22;56800;52.142;5.364;2024-03-08T09:49:25;19.60;44.00
69595;DHT22;56800;52.142;5.364;2024-03-08T09:51:52;19.50;41.70
69595;DHT22;56800;52.142;5.364;2024-03-08T09:54:20;19.30;41.80
69595;DHT22;56800;52.142;5.364;2024-03-08T09:56:51;19.20;42.20
69595;DHT22;56800;52.142;5.364;2024-03-08T09:59:19;19.60;42.90
69595;DHT22;56800;52.142;5.364;2024-03-08T10:01:54;20.00;42.00
69595;DHT22;56800;52.142;5.364;2024-03-08T10:04:25;20.30;41.70
69595;DHT22;56800;52.142;5.364;2024-03-08T10:06:55;20.20;40.50
69595;DHT22;56800;52.142;5.364;2024-03-08T10:09:23;20.30;40.90
69595;DHT22;56800;52.142;5.364;2024-03-08T10:11:56;20.30;40.20
69595;DHT22;56800;52.142;5.364;2024-03-08T10:14:25;20.20;40.10
69595;DHT22;56800;52.142;5.364;2024-03-08T10:16:53;20.20;41.30
69595;DHT22;56800;52.142;5.364;2024-03-08T10:19:21;19.90;39.30
69595;DHT22;56800;52.142;5.364;2024-03-08T10:21:52;19.40;39.70
69595;DHT22;56800;52.142;5.364;2024-03-08T10:24:23;18.90;41.00
69595;DHT22;56800;52.142;5.364;2024-03-08T10:26:58;18.40;41.20
69595;DHT22;56800;52.142;5.364;2024-03-08T10:29:26;18.10;41.90
69595;DHT22;56800;52.142;5.364;2024-03-08T10:31:53;17.80;42.90
69595;DHT22;56800;52.142;5.364;2024-03-08T10:34:23;17.90;43.50
69595;DHT22;56800;52.142;5.364;2024-03-08T10:36:51;17.70;42.90
69595;DHT22;56800;52.142;5.364;2024-03-08T10:39:23;17.30;43.30
69595;DHT22;56800;52.142;5.364;2024-03-08T10:41:56;17.20;44.00
69595;DHT22;56800;52.142;5.364;2024-03-08T10:44:37;17.10;44.20
69595;DHT22;56800;52.142;5.364;2024-03-08T10:47:18;17.00;44.70
69595;DHT22;56800;52.142;5.364;2024-03-08T10:49:54;16.90;45.10
69595;DHT22;56800;52.142;5.364;2024-03-08T10:52:21;16.50;44.00
69595;DHT22;56800;52.142;5.364;2024-03-08T10:54:49;16.30;45.00
69595;DHT22;56800;52.142;5.364;2024-03-08T10:57:18;16.10;45.50
69595;DHT22;56800;52.142;5.364;2024-03-08T10:59:50;15.90;45.20
69595;DHT22;56800;52.142;5.364;2024-03-08T11:02:20;15.70;45.90
69595;DHT22;56800;52.142;5.364;2024-03-08T11:04:48;15.60;45.80
69595;DHT22;56800;52.142;5.364;2024-03-08T11:07:16;15.50;46.20
69595;DHT22;56800;52.142;5.364;2024-03-08T11:09:47;15.30;46.50
69595;DHT22;56800;52.142;5.364;2024-03-08T11:14:54;15.00;46.70
69595;DHT22;56800;52.142;5.364;2024-03-08T11:20:01;14.80;46.90
69595;DHT22;56800;52.142;5.364;2024-03-08T11:22:31;14.60;48.30
69595;DHT22;56800;52.142;5.364;2024-03-08T11:25:02;14.60;47.40
69595;DHT22;56800;52.142;5.364;2024-03-08T11:27:32;14.50;48.00
69595;DHT22;56800;52.142;5.364;2024-03-08T11:30:04;14.50;48.30
69595;DHT22;56800;52.142;5.364;2024-03-08T11:32:45;14.50;48.60
69595;DHT22;56800;52.142;5.364;2024-03-08T11:35:20;14.40;47.60
69595;DHT22;56800;52.142;5.364;2024-03-08T11:37:48;14.30;47.60
69595;DHT22;56800;52.142;5.364;2024-03-08T11:40:15;14.30;48.20
69595;DHT22;56800;52.142;5.364;2024-03-08T11:42:47;14.20;47.70
69595;DHT22;56800;52.142;5.364;2024-03-08T11:45:15;14.00;47.80
69595;DHT22;56800;52.142;5.364;2024-03-08T11:47:45;13.90;47.70
69595;DHT22;56800;52.142;5.364;2024-03-08T11:50:16;13.90;48.70
69595;DHT22;56800;52.142;5.364;2024-03-08T11:52:46;13.80;48.60
69595;DHT22;56800;52.142;5.364;2024-03-08T11:55:14;13.80;49.00
69595;DHT22;56800;52.142;5.364;2024-03-08T11:57:41;13.80;49.30
69595;DHT22;56800;52.142;5.364;2024-03-08T12:00:16;13.90;48.90
69595;DHT22;56800;52.142;5.364;2024-03-08T12:03:09;14.00;48.80
69595;DHT22;56800;52.142;5.364;2024-03-08T12:05:39;14.20;48.80
69595;DHT22;56800;52.142;5.364;2024-03-08T12:08:06;14.30;49.50
69595;DHT22;56800;52.142;5.364;2024-03-08T12:10:35;14.20;47.10
69595;DHT22;56800;52.142;5.364;2024-03-08T12:13:03;14.20;46.80
69595;DHT22;56800;52.142;5.364;2024-03-08T12:15:31;14.30;47.00
69595;DHT22;56800;52.142;5.364;2024-03-08T12:18:00;14.40;47.90
69595;DHT22;56800;52.142;5.364;2024-03-08T12:20:29;14.60;47.40
69595;DHT22;56800;52.142;5.364;2024-03-08T12:22:57;14.90;47.00
69595;DHT22;56800;52.142;5.364;2024-03-08T12:25:30;15.10;47.30
69595;DHT22;56800;52.142;5.364;2024-03-08T12:28:07;15.30;46.70
69595;DHT22;56800;52.142;5.364;2024-03-08T12:30:49;15.50;45.20
69595;DHT22;56800;52.142;5.364;2024-03-08T12:33:19;15.50;45.00
69595;DHT22;56800;52.142;5.364;2024-03-08T12:35:54;15.60;44.90
69595;DHT22;56800;52.142;5.364;2024-03-08T12:38:22;15.70;44.60
69595;DHT22;56800;52.142;5.364;2024-03-08T12:40:58;15.90;44.70
69595;DHT22;56800;52.142;5.364;2024-03-08T12:43:26;16.00;44.40
69595;DHT22;56800;52.142;5.364;2024-03-08T12:45:53;16.00;43.60
69595;DHT22;56800;52.142;5.364;2024-03-08T12:48:21;16.00;43.90
69595;DHT22;56800;52.142;5.364;2024-03-08T12:50:48;16.10;43.50
69595;DHT22;56800;52.142;5.364;2024-03-08T12:53:17;16.10;43.70
69595;DHT22;56800;52.142;5.364;2024-03-08T12:55:45;16.00;42.90
69595;DHT22;56800;52.142;5.364;2024-03-08T12:58:12;16.10;43.50
69595;DHT22;56800;52.142;5.364;2024-03-08T13:00:38;16.10;43.20
69595;DHT22;56800;52.142;5.364;2024-03-08T13:03:09;16.10;43.20
69595;DHT22;56800;52.142;5.364;2024-03-08T13:05:38;16.10;42.90
69595;DHT22;56800;52.142;5.364;2024-03-08T13:08:09;16.10;43.70
69595;DHT22;56800;52.142;5.364;2024-03-08T13:10:40;16.10;44.10
69595;DHT22;56800;52.142;5.364;2024-03-08T13:13:07;16.10;43.70
69595;DHT22;56800;52.142;5.364;2024-03-08T13:15:36;16.10;43.30
69595;DHT22;56800;52.142;5.364;2024-03-08T13:18:03;15.90;42.50
69595;DHT22;56800;52.142;5.364;2024-03-08T13:20:30;15.90;43.10
69595;DHT22;56800;52.142;5.364;2024-03-08T13:23:12;15.80;42.60
69595;DHT22;56800;52.142;5.364;2024-03-08T13:25:39;15.60;42.60
69595;DHT22;56800;52.142;5.364;2024-03-08T13:28:07;15.50;43.10
69595;DHT22;56800;52.142;5.364;2024-03-08T13:30:34;15.50;43.30
69595;DHT22;56800;52.142;5.364;2024-03-08T13:33:02;15.50;43.40
69595;DHT22;56800;52.142;5.364;2024-03-08T13:35:32;15.40;43.50
69595;DHT22;56800;52.142;5.364;2024-03-08T13:37:59;15.30;44.20
69595;DHT22;56800;52.142;5.364;2024-03-08T13:40:27;15.40;44.80
69595;DHT22;56800;52.142;5.364;2024-03-08T13:42:56;15.30;44.00
69595;DHT22;56800;52.142;5.364;2024-03-08T13:45:23;15.20;43.40
69595;DHT22;56800;52.142;5.364;2024-03-08T13:47:54;15.00;43.30
69595;DHT22;56800;52.142;5.364;2024-03-08T13:50:21;15.00;43.80
69595;DHT22;56800;52.142;5.364;2024-03-08T13:52:50;14.90;44.30
69595;DHT22;56800;52.142;5.364;2024-03-08T13:55:22;14.90;44.00
69595;DHT22;56800;52.142;5.364;2024-03-08T13:57:50;14.80;43.90
69595;DHT22;56800;52.142;5.364;2024-03-08T14:00:18;14.70;43.90
69595;DHT22;56800;52.142;5.364;2024-03-08T14:02:49;14.50;44.20
69595;DHT22;56800;52.142;5.364;2024-03-08T14:05:18;14.50;44.50
69595;DHT22;56800;52.142;5.364;2024-03-08T14:07:46;14.40;44.40
69595;DHT22;56800;52.142;5.364;2024-03-08T14:10:16;14.30;44.20
69595;DHT22;56800;52.142;5.364;2024-03-08T14:12:47;14.20;44.90
69595;DHT22;56800;52.142;5.364;2024-03-08T14:15:15;14.10;44.80
69595;DHT22;56800;52.142;5.364;2024-03-08T14:17:44;14.00;44.90
69595;DHT22;56800;52.142;5.364;2024-03-08T14:20:14;13.90;45.30
69595;DHT22;56800;52.142;5.364;2024-03-08T14:22:41;13.80;45.40
69595;DHT22;56800;52.142;5.364;2024-03-08T14:25:09;13.70;45.90
69595;DHT22;56800;52.142;5.364;2024-03-08T14:27:46;13.70;46.10
69595;DHT22;56800;52.142;5.364;2024-03-08T14:30:13;13.60;46.10
69595;DHT22;56800;52.142;5.364;2024-03-08T14:32:58;13.50;46.10
69595;DHT22;56800;52.142;5.364;2024-03-08T14:35:29;13.40;46.70
69595;DHT22;56800;52.142;5.364;2024-03-08T14:37:56;13.40;46.90
69595;DHT22;56800;52.142;5.364;2024-03-08T14:40:24;13.40;47.20
69595;DHT22;56800;52.142;5.364;2024-03-08T14:42:53;13.30;47.20
69595;DHT22;56800;52.142;5.364;2024-03-08T14:45:20;13.20;47.20
69595;DHT22;56800;52.142;5.364;2024-03-08T14:47:50;13.10;47.60
69595;DHT22;56800;52.142;5.364;2024-03-08T14:50:19;13.00;47.90
69595;DHT22;56800;52.142;5.364;2024-03-08T14:52:51;12.90;48.20
69595;DHT22;56800;52.142;5.364;2024-03-08T14:55:19;12.90;48.70
69595;DHT22;56800;52.142;5.364;2024-03-08T14:57:49;12.90;48.70
69595;DHT22;56800;52.142;5.364;2024-03-08T15:00:20;12.80;48.40
69595;DHT22;56800;52.142;5.364;2024-03-08T15:03:16;12.70;48.60
69595;DHT22;56800;52.142;5.364;2024-03-08T15:05:46;12.60;48.90
69595;DHT22;56800;52.142;5.364;2024-03-08T15:08:18;12.50;48.80
69595;DHT22;56800;52.142;5.364;2024-03-08T15:10:51;12.50;49.10
69595;DHT22;56800;52.142;5.364;2024-03-08T15:13:25;12.40;49.00
69595;DHT22;56800;52.142;5.364;2024-03-08T15:16:06;12.30;49.40
69595;DHT22;56800;52.142;5.364;2024-03-08T15:18:34;12.20;49.70
69595;DHT22;56800;52.142;5.364;2024-03-08T15:21:08;12.20;49.80
69595;DHT22;56800;52.142;5.364;2024-03-08T15:23:40;12.20;49.80
69595;DHT22;56800;52.142;5.364;2024-03-08T15:26:13;12.10;50.10
69595;DHT22;56800;52.142;5.364;2024-03-08T15:28:41;12.10;50.40
69595;DHT22;56800;52.142;5.364;2024-03-08T15:31:10;12.10;50.60
69595;DHT22;56800;52.142;5.364;2024-03-08T15:33:39;12.10;50.90
69595;DHT22;56800;52.142;5.364;2024-03-08T15:36:15;12.10;51.30
69595;DHT22;56800;52.142;5.364;2024-03-08T15:38:43;12.00;50.90
69595;DHT22;56800;52.142;5.364;2024-03-08T15:41:18;12.00;51.00
69595;DHT22;56800;52.142;5.364;2024-03-08T15:43:48;12.00;51.00
69595;DHT22;56800;52.142;5.364;2024-03-08T15:46:17;12.00;51.30
69595;DHT22;56800;52.142;5.364;2024-03-08T15:48:49;11.90;51.40
69595;DHT22;56800;52.142;5.364;2024-03-08T15:51:21;11.90;51.40
69595;DHT22;56800;52.142;5.364;2024-03-08T15:53:48;11.80;51.30
69595;DHT22;56800;52.142;5.364;2024-03-08T15:56:24;11.80;51.20